Airfield :







YOU CAN JOIN US ON...

 
LOGIN :

Register | Disclaimer

   EN    FR    IT 

 









Legend :    VFR   Marginal VFR   IFR   Intensive IFR   Very Intensive IFR
Visi :
Ceiling :
>= 8 km
>= 3000ft
5 to 8 km
1000 to 3000 ft
1500m to 5 km
500 to 1000 ft
800 to 1500m
200 to 500 ft
< 800m
< 200 ft
Symbols :   Thunderstorms  Fog  Heavy snow  Heavy precipitations  Wind > 20 kt






- Airport Elevation : 124 ft
- IATA code : YGV


CYGV - Havre St Pierre

CURRENT METAR :
  • 070000Z AUTO 31007KT 9SM OVC100 M01/M06 A2951 RMK SLP998

EXPIRED METARs :
  • 062300Z AUTO 35010KT 9SM BKN046 BKN065 OVC079 M01/M07 A2948 RMK SLP987
  • 062248Z AUTO 35008G16KT 9SM BKN042 M01/M07 A2948 RMK SLP985
  • 062216Z AUTO 35009G16KT 9SM -SN OVC048 M01/M07 A2947 RMK SLP982

TAF TAF CYGV
Valid from the 06 at 20:00 until the 07 at 08:00 UTC


061938Z 0620/0708 32018G30KT P6SM BKN050 OVC070
TEMPO 0620/0623 5SM -SHSN OVC020
BECMG 0620/0622 33015G25KT
FM062300 33015G25KT P6SM BKN040
BECMG 0700/0702 33012G22KT SCT040
FM070600 35010G20KT P6SM FEW040 RMK FCST BASED ON AUTO OBS. NXT FCST BY 070200Z



MET'MAP, your aeronautical weather chart ! - Copyright ORBIFLY December 2007 - Disclaimer

ORBIFLY MET'MAP TEAM :

Programming & Development : Alexandra Zaïnal
Concept & original design : Baudouin d'Aumeries
Assistance for programming : Marc-Olivier Méhu
Technical & hardware support : Manuel Goepfert

Contact : metmap@orbifly.com




SOURCES & CREDITS :

   NOAA